sensor_id;sensor_type;location;lat;lon;timestamp;P1;durP1;ratioP1;P2;durP2;ratioP2
78410;SDS011;67706;51.074;-1.796;2023-05-25T00:01:35;11.18;;;3.72;;
78410;SDS011;67706;51.074;-1.796;2023-05-25T00:04:02;11.40;;;4.55;;
78410;SDS011;67706;51.074;-1.796;2023-05-25T00:06:29;9.15;;;4.20;;
78410;SDS011;67706;51.074;-1.796;2023-05-25T00:08:56;12.23;;;4.50;;
78410;SDS011;67706;51.074;-1.796;2023-05-25T00:11:23;12.85;;;4.10;;
78410;SDS011;67706;51.074;-1.796;2023-05-25T00:13:52;13.27;;;4.90;;
78410;SDS011;67706;51.074;-1.796;2023-05-25T00:16:19;12.32;;;4.55;;
78410;SDS011;67706;51.074;-1.796;2023-05-25T00:18:45;13.25;;;4.63;;
78410;SDS011;67706;51.074;-1.796;2023-05-25T00:21:13;14.07;;;4.68;;
78410;SDS011;67706;51.074;-1.796;2023-05-25T00:23:40;10.82;;;4.53;;
78410;SDS011;67706;51.074;-1.796;2023-05-25T00:26:07;15.25;;;4.85;;
78410;SDS011;67706;51.074;-1.796;2023-05-25T00:28:33;12.90;;;4.53;;
78410;SDS011;67706;51.074;-1.796;2023-05-25T00:31:02;13.00;;;4.28;;
78410;SDS011;67706;51.074;-1.796;2023-05-25T00:33:28;13.35;;;4.85;;
78410;SDS011;67706;51.074;-1.796;2023-05-25T00:35:55;11.20;;;4.78;;
78410;SDS011;67706;51.074;-1.796;2023-05-25T00:38:22;12.60;;;4.80;;
78410;SDS011;67706;51.074;-1.796;2023-05-25T00:40:52;17.08;;;5.07;;
78410;SDS011;67706;51.074;-1.796;2023-05-25T00:43:20;10.75;;;4.93;;
78410;SDS011;67706;51.074;-1.796;2023-05-25T00:45:47;13.98;;;5.43;;
78410;SDS011;67706;51.074;-1.796;2023-05-25T00:48:16;15.52;;;5.38;;
78410;SDS011;67706;51.074;-1.796;2023-05-25T00:50:43;14.68;;;5.10;;
78410;SDS011;67706;51.074;-1.796;2023-05-25T00:53:11;11.80;;;4.88;;
78410;SDS011;67706;51.074;-1.796;2023-05-25T00:55:40;9.88;;;4.60;;
78410;SDS011;67706;51.074;-1.796;2023-05-25T00:58:15;11.77;;;5.20;;
78410;SDS011;67706;51.074;-1.796;2023-05-25T01:00:43;18.67;;;5.68;;
78410;SDS011;67706;51.074;-1.796;2023-05-25T01:03:14;12.07;;;4.93;;
78410;SDS011;67706;51.074;-1.796;2023-05-25T01:05:51;13.20;;;4.30;;
78410;SDS011;67706;51.074;-1.796;2023-05-25T01:08:20;10.27;;;4.57;;
78410;SDS011;67706;51.074;-1.796;2023-05-25T01:10:48;14.88;;;5.40;;
78410;SDS011;67706;51.074;-1.796;2023-05-25T01:13:18;14.60;;;4.85;;
78410;SDS011;67706;51.074;-1.796;2023-05-25T01:15:46;15.50;;;5.25;;
78410;SDS011;67706;51.074;-1.796;2023-05-25T01:18:13;9.00;;;4.90;;
78410;SDS011;67706;51.074;-1.796;2023-05-25T01:20:57;9.98;;;4.68;;
78410;SDS011;67706;51.074;-1.796;2023-05-25T01:23:37;12.55;;;4.65;;
78410;SDS011;67706;51.074;-1.796;2023-05-25T01:26:08;12.18;;;4.78;;
78410;SDS011;67706;51.074;-1.796;2023-05-25T01:28:41;12.32;;;5.18;;
78410;SDS011;67706;51.074;-1.796;2023-05-25T01:31:12;15.32;;;5.22;;
78410;SDS011;67706;51.074;-1.796;2023-05-25T01:33:40;12.88;;;4.63;;
78410;SDS011;67706;51.074;-1.796;2023-05-25T01:36:09;14.35;;;4.95;;
78410;SDS011;67706;51.074;-1.796;2023-05-25T01:38:36;11.73;;;5.47;;
78410;SDS011;67706;51.074;-1.796;2023-05-25T01:41:03;9.52;;;5.10;;
78410;SDS011;67706;51.074;-1.796;2023-05-25T01:43:29;11.88;;;4.50;;
78410;SDS011;67706;51.074;-1.796;2023-05-25T01:45:57;11.63;;;4.80;;
78410;SDS011;67706;51.074;-1.796;2023-05-25T01:48:33;10.13;;;4.35;;
78410;SDS011;67706;51.074;-1.796;2023-05-25T01:51:16;13.30;;;5.10;;
78410;SDS011;67706;51.074;-1.796;2023-05-25T01:53:51;15.65;;;4.90;;
78410;SDS011;67706;51.074;-1.796;2023-05-25T01:56:23;12.77;;;5.03;;
78410;SDS011;67706;51.074;-1.796;2023-05-25T01:58:54;13.93;;;4.68;;
78410;SDS011;67706;51.074;-1.796;2023-05-25T02:01:23;9.82;;;4.35;;
78410;SDS011;67706;51.074;-1.796;2023-05-25T02:03:51;11.05;;;5.28;;
78410;SDS011;67706;51.074;-1.796;2023-05-25T02:06:20;12.90;;;4.88;;
78410;SDS011;67706;51.074;-1.796;2023-05-25T02:08:47;13.13;;;4.95;;
78410;SDS011;67706;51.074;-1.796;2023-05-25T02:11:13;14.02;;;5.35;;
78410;SDS011;67706;51.074;-1.796;2023-05-25T02:13:41;10.30;;;5.35;;
78410;SDS011;67706;51.074;-1.796;2023-05-25T02:16:08;14.13;;;5.30;;
78410;SDS011;67706;51.074;-1.796;2023-05-25T02:18:34;14.85;;;5.18;;
78410;SDS011;67706;51.074;-1.796;2023-05-25T02:21:01;12.07;;;5.07;;
78410;SDS011;67706;51.074;-1.796;2023-05-25T02:23:29;11.52;;;5.40;;
78410;SDS011;67706;51.074;-1.796;2023-05-25T02:25:56;9.73;;;4.82;;
78410;SDS011;67706;51.074;-1.796;2023-05-25T02:28:23;12.63;;;4.78;;
78410;SDS011;67706;51.074;-1.796;2023-05-25T02:30:50;10.65;;;5.00;;
78410;SDS011;67706;51.074;-1.796;2023-05-25T02:33:16;16.10;;;5.50;;
78410;SDS011;67706;51.074;-1.796;2023-05-25T02:35:44;10.23;;;5.22;;
78410;SDS011;67706;51.074;-1.796;2023-05-25T02:38:11;13.27;;;4.75;;
78410;SDS011;67706;51.074;-1.796;2023-05-25T02:40:39;13.48;;;5.43;;
78410;SDS011;67706;51.074;-1.796;2023-05-25T02:43:05;14.55;;;5.68;;
78410;SDS011;67706;51.074;-1.796;2023-05-25T02:45:32;12.43;;;5.40;;
78410;SDS011;67706;51.074;-1.796;2023-05-25T02:47:59;12.15;;;5.28;;
78410;SDS011;67706;51.074;-1.796;2023-05-25T02:50:25;11.80;;;5.25;;
78410;SDS011;67706;51.074;-1.796;2023-05-25T02:52:52;12.68;;;5.15;;
78410;SDS011;67706;51.074;-1.796;2023-05-25T02:55:19;12.95;;;5.25;;
78410;SDS011;67706;51.074;-1.796;2023-05-25T02:57:47;18.20;;;5.40;;
78410;SDS011;67706;51.074;-1.796;2023-05-25T03:00:14;14.65;;;5.35;;
78410;SDS011;67706;51.074;-1.796;2023-05-25T03:02:41;12.18;;;5.18;;
78410;SDS011;67706;51.074;-1.796;2023-05-25T03:05:11;13.20;;;5.13;;
78410;SDS011;67706;51.074;-1.796;2023-05-25T03:07:38;10.93;;;5.07;;
78410;SDS011;67706;51.074;-1.796;2023-05-25T03:10:05;13.80;;;6.03;;
78410;SDS011;67706;51.074;-1.796;2023-05-25T03:12:32;12.75;;;5.45;;
78410;SDS011;67706;51.074;-1.796;2023-05-25T03:15:00;10.68;;;5.38;;
78410;SDS011;67706;51.074;-1.796;2023-05-25T03:17:27;14.40;;;5.28;;
78410;SDS011;67706;51.074;-1.796;2023-05-25T03:19:54;12.70;;;5.50;;
78410;SDS011;67706;51.074;-1.796;2023-05-25T03:22:20;11.52;;;5.35;;
78410;SDS011;67706;51.074;-1.796;2023-05-25T03:24:47;15.98;;;5.82;;
78410;SDS011;67706;51.074;-1.796;2023-05-25T03:27:14;13.18;;;5.32;;
78410;SDS011;67706;51.074;-1.796;2023-05-25T03:29:41;11.93;;;5.28;;
78410;SDS011;67706;51.074;-1.796;2023-05-25T03:32:09;14.68;;;5.25;;
78410;SDS011;67706;51.074;-1.796;2023-05-25T03:34:35;15.45;;;6.07;;
78410;SDS011;67706;51.074;-1.796;2023-05-25T03:37:02;13.85;;;5.30;;
78410;SDS011;67706;51.074;-1.796;2023-05-25T03:39:29;16.88;;;5.38;;
78410;SDS011;67706;51.074;-1.796;2023-05-25T03:41:55;11.95;;;5.07;;
78410;SDS011;67706;51.074;-1.796;2023-05-25T03:44:23;12.95;;;4.88;;
78410;SDS011;67706;51.074;-1.796;2023-05-25T03:46:50;14.23;;;4.95;;
78410;SDS011;67706;51.074;-1.796;2023-05-25T03:49:18;11.50;;;4.65;;
78410;SDS011;67706;51.074;-1.796;2023-05-25T03:51:45;12.63;;;5.38;;
78410;SDS011;67706;51.074;-1.796;2023-05-25T03:54:11;11.82;;;4.82;;
78410;SDS011;67706;51.074;-1.796;2023-05-25T03:56:38;12.40;;;5.22;;
78410;SDS011;67706;51.074;-1.796;2023-05-25T03:59:05;13.50;;;5.72;;
78410;SDS011;67706;51.074;-1.796;2023-05-25T04:01:31;11.40;;;5.25;;
78410;SDS011;67706;51.074;-1.796;2023-05-25T04:04:02;10.95;;;4.72;;
78410;SDS011;67706;51.074;-1.796;2023-05-25T04:06:30;14.20;;;5.13;;
78410;SDS011;67706;51.074;-1.796;2023-05-25T04:08:58;16.92;;;5.70;;
78410;SDS011;67706;51.074;-1.796;2023-05-25T04:11:25;11.77;;;4.88;;
78410;SDS011;67706;51.074;-1.796;2023-05-25T04:13:53;12.45;;;5.75;;
78410;SDS011;67706;51.074;-1.796;2023-05-25T04:16:19;12.82;;;5.10;;
78410;SDS011;67706;51.074;-1.796;2023-05-25T04:18:46;13.57;;;6.00;;
78410;SDS011;67706;51.074;-1.796;2023-05-25T04:21:13;14.20;;;5.28;;
78410;SDS011;67706;51.074;-1.796;2023-05-25T04:23:42;12.48;;;5.05;;
78410;SDS011;67706;51.074;-1.796;2023-05-25T04:26:08;12.30;;;5.50;;
78410;SDS011;67706;51.074;-1.796;2023-05-25T04:28:35;11.82;;;5.55;;
78410;SDS011;67706;51.074;-1.796;2023-05-25T04:31:04;15.93;;;5.85;;
78410;SDS011;67706;51.074;-1.796;2023-05-25T04:33:31;11.23;;;5.20;;
78410;SDS011;67706;51.074;-1.796;2023-05-25T04:35:58;15.18;;;5.78;;
78410;SDS011;67706;51.074;-1.796;2023-05-25T04:38:25;18.65;;;6.03;;
78410;SDS011;67706;51.074;-1.796;2023-05-25T04:40:53;15.80;;;5.22;;
78410;SDS011;67706;51.074;-1.796;2023-05-25T04:43:21;12.95;;;4.78;;
78410;SDS011;67706;51.074;-1.796;2023-05-25T04:45:49;14.75;;;5.85;;
78410;SDS011;67706;51.074;-1.796;2023-05-25T04:48:16;11.25;;;4.97;;
78410;SDS011;67706;51.074;-1.796;2023-05-25T04:50:43;11.20;;;5.28;;
78410;SDS011;67706;51.074;-1.796;2023-05-25T04:53:10;13.70;;;5.18;;
78410;SDS011;67706;51.074;-1.796;2023-05-25T04:55:37;13.55;;;5.32;;
78410;SDS011;67706;51.074;-1.796;2023-05-25T04:58:05;13.73;;;5.28;;
78410;SDS011;67706;51.074;-1.796;2023-05-25T05:00:32;16.45;;;6.20;;
78410;SDS011;67706;51.074;-1.796;2023-05-25T05:02:59;14.23;;;5.00;;
78410;SDS011;67706;51.074;-1.796;2023-05-25T05:05:25;16.48;;;5.78;;
78410;SDS011;67706;51.074;-1.796;2023-05-25T05:07:52;12.20;;;5.47;;
78410;SDS011;67706;51.074;-1.796;2023-05-25T05:10:19;11.85;;;5.30;;
78410;SDS011;67706;51.074;-1.796;2023-05-25T05:12:45;12.55;;;4.95;;
78410;SDS011;67706;51.074;-1.796;2023-05-25T05:15:14;14.88;;;5.70;;
78410;SDS011;67706;51.074;-1.796;2023-05-25T05:17:41;13.65;;;5.28;;
78410;SDS011;67706;51.074;-1.796;2023-05-25T05:20:08;13.20;;;5.60;;
78410;SDS011;67706;51.074;-1.796;2023-05-25T05:22:35;13.55;;;4.85;;
78410;SDS011;67706;51.074;-1.796;2023-05-25T05:25:02;12.82;;;4.85;;
78410;SDS011;67706;51.074;-1.796;2023-05-25T05:27:30;16.70;;;5.25;;
78410;SDS011;67706;51.074;-1.796;2023-05-25T05:29:56;13.30;;;5.35;;
78410;SDS011;67706;51.074;-1.796;2023-05-25T05:32:24;13.93;;;5.00;;
78410;SDS011;67706;51.074;-1.796;2023-05-25T05:34:51;16.58;;;5.60;;
78410;SDS011;67706;51.074;-1.796;2023-05-25T05:37:18;15.13;;;5.60;;
78410;SDS011;67706;51.074;-1.796;2023-05-25T05:39:44;13.27;;;5.30;;
78410;SDS011;67706;51.074;-1.796;2023-05-25T05:42:11;15.60;;;5.55;;
78410;SDS011;67706;51.074;-1.796;2023-05-25T05:44:38;12.25;;;5.00;;
78410;SDS011;67706;51.074;-1.796;2023-05-25T05:47:04;13.77;;;6.05;;
78410;SDS011;67706;51.074;-1.796;2023-05-25T05:49:33;15.10;;;5.43;;
78410;SDS011;67706;51.074;-1.796;2023-05-25T05:51:59;15.95;;;6.00;;
78410;SDS011;67706;51.074;-1.796;2023-05-25T05:54:26;16.83;;;6.10;;
78410;SDS011;67706;51.074;-1.796;2023-05-25T05:56:53;13.82;;;5.47;;
78410;SDS011;67706;51.074;-1.796;2023-05-25T05:59:20;14.48;;;5.80;;
78410;SDS011;67706;51.074;-1.796;2023-05-25T06:01:47;14.48;;;5.28;;
78410;SDS011;67706;51.074;-1.796;2023-05-25T06:04:13;15.15;;;6.18;;
78410;SDS011;67706;51.074;-1.796;2023-05-25T06:06:41;11.10;;;5.20;;
78410;SDS011;67706;51.074;-1.796;2023-05-25T06:09:09;14.15;;;5.65;;
78410;SDS011;67706;51.074;-1.796;2023-05-25T06:11:36;19.13;;;5.80;;
78410;SDS011;67706;51.074;-1.796;2023-05-25T06:14:04;12.73;;;5.68;;
78410;SDS011;67706;51.074;-1.796;2023-05-25T06:16:30;16.70;;;5.82;;
78410;SDS011;67706;51.074;-1.796;2023-05-25T06:18:57;15.20;;;5.47;;
78410;SDS011;67706;51.074;-1.796;2023-05-25T06:21:24;12.15;;;5.28;;
78410;SDS011;67706;51.074;-1.796;2023-05-25T06:23:52;16.00;;;5.47;;
78410;SDS011;67706;51.074;-1.796;2023-05-25T06:26:21;15.82;;;5.50;;
78410;SDS011;67706;51.074;-1.796;2023-05-25T06:28:48;17.25;;;5.53;;
78410;SDS011;67706;51.074;-1.796;2023-05-25T06:31:16;14.35;;;5.53;;
78410;SDS011;67706;51.074;-1.796;2023-05-25T06:33:43;13.95;;;4.78;;
78410;SDS011;67706;51.074;-1.796;2023-05-25T06:36:10;13.82;;;5.07;;
78410;SDS011;67706;51.074;-1.796;2023-05-25T06:38:38;13.32;;;5.60;;
78410;SDS011;67706;51.074;-1.796;2023-05-25T06:41:06;12.02;;;5.40;;
78410;SDS011;67706;51.074;-1.796;2023-05-25T06:43:33;16.92;;;5.00;;
78410;SDS011;67706;51.074;-1.796;2023-05-25T06:46:00;16.58;;;5.53;;
78410;SDS011;67706;51.074;-1.796;2023-05-25T06:48:27;14.98;;;5.03;;
78410;SDS011;67706;51.074;-1.796;2023-05-25T06:50:53;14.73;;;5.30;;
78410;SDS011;67706;51.074;-1.796;2023-05-25T06:53:20;12.88;;;5.00;;
78410;SDS011;67706;51.074;-1.796;2023-05-25T06:55:47;12.30;;;4.93;;
78410;SDS011;67706;51.074;-1.796;2023-05-25T06:58:15;12.43;;;4.88;;
78410;SDS011;67706;51.074;-1.796;2023-05-25T07:00:42;14.60;;;5.28;;
78410;SDS011;67706;51.074;-1.796;2023-05-25T07:03:09;12.13;;;5.63;;
78410;SDS011;67706;51.074;-1.796;2023-05-25T07:05:35;13.45;;;5.30;;
78410;SDS011;67706;51.074;-1.796;2023-05-25T07:08:02;13.73;;;4.85;;
78410;SDS011;67706;51.074;-1.796;2023-05-25T07:10:29;12.85;;;4.32;;
78410;SDS011;67706;51.074;-1.796;2023-05-25T07:12:55;11.45;;;4.22;;
78410;SDS011;67706;51.074;-1.796;2023-05-25T07:15:23;11.65;;;4.32;;
78410;SDS011;67706;51.074;-1.796;2023-05-25T07:17:50;12.25;;;4.43;;
78410;SDS011;67706;51.074;-1.796;2023-05-25T07:20:17;12.13;;;4.47;;
78410;SDS011;67706;51.074;-1.796;2023-05-25T07:22:46;12.00;;;4.82;;
78410;SDS011;67706;51.074;-1.796;2023-05-25T07:25:13;12.63;;;4.75;;
78410;SDS011;67706;51.074;-1.796;2023-05-25T07:27:39;14.45;;;5.05;;
78410;SDS011;67706;51.074;-1.796;2023-05-25T07:30:07;10.00;;;4.28;;
78410;SDS011;67706;51.074;-1.796;2023-05-25T07:32:36;14.68;;;4.60;;
78410;SDS011;67706;51.074;-1.796;2023-05-25T07:35:03;14.77;;;5.05;;
78410;SDS011;67706;51.074;-1.796;2023-05-25T07:37:30;13.48;;;4.75;;
78410;SDS011;67706;51.074;-1.796;2023-05-25T07:39:57;17.70;;;5.05;;
78410;SDS011;67706;51.074;-1.796;2023-05-25T07:42:25;13.10;;;5.28;;
78410;SDS011;67706;51.074;-1.796;2023-05-25T07:44:58;12.05;;;4.60;;
78410;SDS011;67706;51.074;-1.796;2023-05-25T07:47:26;11.52;;;4.05;;
78410;SDS011;67706;51.074;-1.796;2023-05-25T07:49:54;10.98;;;5.15;;
78410;SDS011;67706;51.074;-1.796;2023-05-25T07:52:21;17.95;;;4.93;;
78410;SDS011;67706;51.074;-1.796;2023-05-25T07:54:48;12.90;;;5.07;;
78410;SDS011;67706;51.074;-1.796;2023-05-25T07:57:15;11.23;;;5.07;;
78410;SDS011;67706;51.074;-1.796;2023-05-25T07:59:42;10.05;;;4.60;;
78410;SDS011;67706;51.074;-1.796;2023-05-25T08:02:10;10.10;;;4.45;;
78410;SDS011;67706;51.074;-1.796;2023-05-25T08:04:36;9.80;;;4.78;;
78410;SDS011;67706;51.074;-1.796;2023-05-25T08:07:05;13.15;;;4.50;;
78410;SDS011;67706;51.074;-1.796;2023-05-25T08:09:32;8.60;;;3.60;;
78410;SDS011;67706;51.074;-1.796;2023-05-25T08:11:59;9.48;;;3.88;;
78410;SDS011;67706;51.074;-1.796;2023-05-25T08:14:26;10.90;;;4.38;;
78410;SDS011;67706;51.074;-1.796;2023-05-25T08:16:53;11.93;;;4.35;;
78410;SDS011;67706;51.074;-1.796;2023-05-25T08:19:20;9.35;;;4.60;;
78410;SDS011;67706;51.074;-1.796;2023-05-25T08:21:47;12.50;;;4.20;;
78410;SDS011;67706;51.074;-1.796;2023-05-25T08:24:15;7.22;;;3.60;;
78410;SDS011;67706;51.074;-1.796;2023-05-25T08:26:42;11.25;;;4.18;;
78410;SDS011;67706;51.074;-1.796;2023-05-25T08:29:12;11.00;;;4.35;;
78410;SDS011;67706;51.074;-1.796;2023-05-25T08:31:38;7.40;;;3.55;;
78410;SDS011;67706;51.074;-1.796;2023-05-25T08:34:08;10.15;;;4.00;;
78410;SDS011;67706;51.074;-1.796;2023-05-25T08:36:35;8.68;;;3.38;;
78410;SDS011;67706;51.074;-1.796;2023-05-25T08:39:03;10.18;;;3.42;;
78410;SDS011;67706;51.074;-1.796;2023-05-25T08:41:33;8.10;;;3.47;;
78410;SDS011;67706;51.074;-1.796;2023-05-25T08:44:02;9.60;;;3.88;;
78410;SDS011;67706;51.074;-1.796;2023-05-25T08:46:32;7.00;;;3.47;;
78410;SDS011;67706;51.074;-1.796;2023-05-25T08:49:02;6.05;;;2.63;;
78410;SDS011;67706;51.074;-1.796;2023-05-25T08:51:31;9.55;;;3.60;;
78410;SDS011;67706;51.074;-1.796;2023-05-25T08:54:04;8.27;;;3.97;;
78410;SDS011;67706;51.074;-1.796;2023-05-25T08:56:36;9.77;;;3.00;;
78410;SDS011;67706;51.074;-1.796;2023-05-25T08:59:09;8.40;;;3.13;;
78410;SDS011;67706;51.074;-1.796;2023-05-25T09:01:43;7.00;;;2.97;;
78410;SDS011;67706;51.074;-1.796;2023-05-25T09:04:12;10.55;;;3.58;;
78410;SDS011;67706;51.074;-1.796;2023-05-25T09:06:39;6.30;;;2.97;;
78410;SDS011;67706;51.074;-1.796;2023-05-25T09:09:06;8.18;;;3.10;;
78410;SDS011;67706;51.074;-1.796;2023-05-25T09:11:37;6.53;;;3.20;;
78410;SDS011;67706;51.074;-1.796;2023-05-25T09:14:06;8.07;;;3.28;;
78410;SDS011;67706;51.074;-1.796;2023-05-25T09:16:33;14.57;;;3.10;;
78410;SDS011;67706;51.074;-1.796;2023-05-25T09:19:02;5.25;;;2.45;;
78410;SDS011;67706;51.074;-1.796;2023-05-25T09:21:29;7.70;;;2.33;;
78410;SDS011;67706;51.074;-1.796;2023-05-25T09:23:57;7.70;;;3.13;;
78410;SDS011;67706;51.074;-1.796;2023-05-25T09:26:25;14.45;;;2.80;;
78410;SDS011;67706;51.074;-1.796;2023-05-25T09:28:53;7.05;;;2.50;;
78410;SDS011;67706;51.074;-1.796;2023-05-25T09:31:22;5.28;;;2.45;;
78410;SDS011;67706;51.074;-1.796;2023-05-25T09:33:49;6.30;;;2.50;;
78410;SDS011;67706;51.074;-1.796;2023-05-25T09:36:19;5.97;;;2.42;;
78410;SDS011;67706;51.074;-1.796;2023-05-25T09:38:47;6.05;;;2.25;;
78410;SDS011;67706;51.074;-1.796;2023-05-25T09:41:15;9.98;;;2.63;;
78410;SDS011;67706;51.074;-1.796;2023-05-25T09:43:41;6.95;;;2.90;;
78410;SDS011;67706;51.074;-1.796;2023-05-25T09:46:11;3.88;;;1.90;;
78410;SDS011;67706;51.074;-1.796;2023-05-25T09:48:39;13.88;;;2.85;;
78410;SDS011;67706;51.074;-1.796;2023-05-25T09:51:07;6.10;;;2.47;;
78410;SDS011;67706;51.074;-1.796;2023-05-25T09:53:34;7.20;;;2.70;;
78410;SDS011;67706;51.074;-1.796;2023-05-25T09:56:01;8.55;;;2.92;;
78410;SDS011;67706;51.074;-1.796;2023-05-25T09:58:28;6.53;;;2.53;;
78410;SDS011;67706;51.074;-1.796;2023-05-25T10:00:55;5.82;;;2.60;;
78410;SDS011;67706;51.074;-1.796;2023-05-25T10:03:24;6.93;;;3.42;;
78410;SDS011;67706;51.074;-1.796;2023-05-25T10:05:52;9.23;;;2.97;;
78410;SDS011;67706;51.074;-1.796;2023-05-25T10:08:20;7.70;;;2.47;;
78410;SDS011;67706;51.074;-1.796;2023-05-25T10:10:49;7.75;;;2.42;;
78410;SDS011;67706;51.074;-1.796;2023-05-25T10:13:17;8.63;;;2.72;;
78410;SDS011;67706;51.074;-1.796;2023-05-25T10:15:47;7.00;;;2.97;;
78410;SDS011;67706;51.074;-1.796;2023-05-25T10:18:18;5.78;;;2.50;;
78410;SDS011;67706;51.074;-1.796;2023-05-25T10:20:55;7.63;;;2.47;;
78410;SDS011;67706;51.074;-1.796;2023-05-25T10:23:32;6.05;;;2.47;;
78410;SDS011;67706;51.074;-1.796;2023-05-25T10:26:06;5.05;;;2.60;;
78410;SDS011;67706;51.074;-1.796;2023-05-25T10:28:35;8.27;;;2.63;;
78410;SDS011;67706;51.074;-1.796;2023-05-25T10:31:03;5.00;;;2.67;;
78410;SDS011;67706;51.074;-1.796;2023-05-25T10:33:32;5.75;;;2.05;;
78410;SDS011;67706;51.074;-1.796;2023-05-25T10:35:59;6.75;;;2.83;;
78410;SDS011;67706;51.074;-1.796;2023-05-25T10:38:29;4.30;;;2.60;;
78410;SDS011;67706;51.074;-1.796;2023-05-25T10:40:57;4.35;;;2.13;;
78410;SDS011;67706;51.074;-1.796;2023-05-25T10:43:25;6.15;;;2.42;;
78410;SDS011;67706;51.074;-1.796;2023-05-25T10:45:56;5.45;;;2.28;;
78410;SDS011;67706;51.074;-1.796;2023-05-25T10:48:36;7.88;;;2.75;;
78410;SDS011;67706;51.074;-1.796;2023-05-25T10:51:06;6.00;;;2.30;;
78410;SDS011;67706;51.074;-1.796;2023-05-25T10:53:46;7.93;;;2.75;;
78410;SDS011;67706;51.074;-1.796;2023-05-25T10:56:23;6.88;;;2.05;;
78410;SDS011;67706;51.074;-1.796;2023-05-25T10:58:50;6.95;;;2.20;;
78410;SDS011;67706;51.074;-1.796;2023-05-25T11:01:18;7.65;;;2.30;;
78410;SDS011;67706;51.074;-1.796;2023-05-25T11:03:56;5.18;;;2.40;;
78410;SDS011;67706;51.074;-1.796;2023-05-25T11:09:32;4.80;;;2.30;;
78410;SDS011;67706;51.074;-1.796;2023-05-25T11:12:01;5.95;;;2.50;;
78410;SDS011;67706;51.074;-1.796;2023-05-25T11:14:31;9.95;;;3.30;;
78410;SDS011;67706;51.074;-1.796;2023-05-25T11:17:05;9.30;;;2.63;;
78410;SDS011;67706;51.074;-1.796;2023-05-25T11:19:39;6.40;;;2.55;;
78410;SDS011;67706;51.074;-1.796;2023-05-25T11:22:13;6.68;;;2.20;;
78410;SDS011;67706;51.074;-1.796;2023-05-25T11:24:41;7.32;;;2.30;;
78410;SDS011;67706;51.074;-1.796;2023-05-25T11:27:09;5.47;;;1.80;;
78410;SDS011;67706;51.074;-1.796;2023-05-25T11:29:37;4.35;;;1.90;;
78410;SDS011;67706;51.074;-1.796;2023-05-25T11:32:04;4.30;;;1.92;;
78410;SDS011;67706;51.074;-1.796;2023-05-25T11:34:39;3.55;;;1.67;;
78410;SDS011;67706;51.074;-1.796;2023-05-25T11:37:10;4.10;;;1.83;;
78410;SDS011;67706;51.074;-1.796;2023-05-25T11:39:40;5.25;;;1.95;;
78410;SDS011;67706;51.074;-1.796;2023-05-25T11:42:07;6.95;;;2.20;;
78410;SDS011;67706;51.074;-1.796;2023-05-25T11:44:36;9.10;;;2.25;;
78410;SDS011;67706;51.074;-1.796;2023-05-25T11:47:04;6.95;;;2.53;;
78410;SDS011;67706;51.074;-1.796;2023-05-25T11:49:34;4.07;;;1.95;;
78410;SDS011;67706;51.074;-1.796;2023-05-25T11:52:04;6.60;;;2.42;;
78410;SDS011;67706;51.074;-1.796;2023-05-25T11:54:32;5.80;;;2.95;;
78410;SDS011;67706;51.074;-1.796;2023-05-25T11:56:59;3.50;;;2.63;;
78410;SDS011;67706;51.074;-1.796;2023-05-25T11:59:27;7.60;;;2.70;;
78410;SDS011;67706;51.074;-1.796;2023-05-25T12:01:55;4.40;;;2.00;;
78410;SDS011;67706;51.074;-1.796;2023-05-25T12:04:22;6.95;;;2.63;;
78410;SDS011;67706;51.074;-1.796;2023-05-25T12:06:49;5.65;;;2.35;;
78410;SDS011;67706;51.074;-1.796;2023-05-25T12:09:19;7.70;;;2.58;;
78410;SDS011;67706;51.074;-1.796;2023-05-25T12:11:47;4.30;;;2.20;;
78410;SDS011;67706;51.074;-1.796;2023-05-25T12:14:14;3.75;;;2.30;;
78410;SDS011;67706;51.074;-1.796;2023-05-25T12:16:40;4.00;;;2.20;;
78410;SDS011;67706;51.074;-1.796;2023-05-25T12:19:08;5.65;;;2.40;;
78410;SDS011;67706;51.074;-1.796;2023-05-25T12:21:36;4.32;;;2.40;;
78410;SDS011;67706;51.074;-1.796;2023-05-25T12:24:03;6.70;;;2.95;;
78410;SDS011;67706;51.074;-1.796;2023-05-25T12:26:33;5.25;;;2.72;;
78410;SDS011;67706;51.074;-1.796;2023-05-25T12:29:00;6.28;;;2.83;;
78410;SDS011;67706;51.074;-1.796;2023-05-25T12:31:27;5.32;;;2.83;;
78410;SDS011;67706;51.074;-1.796;2023-05-25T12:34:05;4.43;;;2.38;;
78410;SDS011;67706;51.074;-1.796;2023-05-25T12:36:40;6.60;;;2.83;;
78410;SDS011;67706;51.074;-1.796;2023-05-25T12:39:09;7.60;;;2.90;;
78410;SDS011;67706;51.074;-1.796;2023-05-25T12:41:45;9.20;;;3.55;;
78410;SDS011;67706;51.074;-1.796;2023-05-25T12:44:23;6.35;;;2.83;;
78410;SDS011;67706;51.074;-1.796;2023-05-25T12:46:51;5.70;;;2.40;;
78410;SDS011;67706;51.074;-1.796;2023-05-25T12:49:27;6.35;;;2.72;;
78410;SDS011;67706;51.074;-1.796;2023-05-25T12:51:56;6.13;;;2.50;;
78410;SDS011;67706;51.074;-1.796;2023-05-25T12:54:33;4.13;;;2.35;;
78410;SDS011;67706;51.074;-1.796;2023-05-25T12:57:02;5.32;;;2.65;;
78410;SDS011;67706;51.074;-1.796;2023-05-25T12:59:31;7.07;;;3.15;;
78410;SDS011;67706;51.074;-1.796;2023-05-25T13:01:58;6.35;;;2.75;;
78410;SDS011;67706;51.074;-1.796;2023-05-25T13:04:25;5.90;;;2.58;;
78410;SDS011;67706;51.074;-1.796;2023-05-25T13:06:52;5.85;;;2.42;;
78410;SDS011;67706;51.074;-1.796;2023-05-25T13:09:21;5.68;;;2.33;;
78410;SDS011;67706;51.074;-1.796;2023-05-25T13:11:49;6.72;;;2.78;;
78410;SDS011;67706;51.074;-1.796;2023-05-25T13:14:17;4.95;;;2.20;;
78410;SDS011;67706;51.074;-1.796;2023-05-25T13:16:44;5.85;;;2.30;;
78410;SDS011;67706;51.074;-1.796;2023-05-25T13:19:11;5.57;;;2.25;;
78410;SDS011;67706;51.074;-1.796;2023-05-25T13:21:38;6.22;;;2.33;;
78410;SDS011;67706;51.074;-1.796;2023-05-25T13:24:05;5.20;;;2.50;;
78410;SDS011;67706;51.074;-1.796;2023-05-25T13:26:32;8.68;;;3.13;;
78410;SDS011;67706;51.074;-1.796;2023-05-25T13:28:59;5.78;;;2.63;;
78410;SDS011;67706;51.074;-1.796;2023-05-25T13:31:27;5.40;;;2.45;;
78410;SDS011;67706;51.074;-1.796;2023-05-25T13:33:54;4.35;;;2.42;;
78410;SDS011;67706;51.074;-1.796;2023-05-25T13:36:22;5.40;;;2.17;;
78410;SDS011;67706;51.074;-1.796;2023-05-25T13:38:48;4.50;;;2.15;;
78410;SDS011;67706;51.074;-1.796;2023-05-25T13:41:15;7.75;;;2.35;;
78410;SDS011;67706;51.074;-1.796;2023-05-25T13:43:43;6.22;;;2.63;;
78410;SDS011;67706;51.074;-1.796;2023-05-25T13:46:09;6.13;;;2.40;;
78410;SDS011;67706;51.074;-1.796;2023-05-25T13:48:37;5.78;;;2.38;;
78410;SDS011;67706;51.074;-1.796;2023-05-25T13:51:04;7.22;;;2.20;;
78410;SDS011;67706;51.074;-1.796;2023-05-25T13:53:31;7.22;;;2.45;;
78410;SDS011;67706;51.074;-1.796;2023-05-25T13:55:58;5.95;;;2.20;;
78410;SDS011;67706;51.074;-1.796;2023-05-25T13:58:25;5.97;;;2.47;;
78410;SDS011;67706;51.074;-1.796;2023-05-25T14:00:52;6.72;;;2.35;;
78410;SDS011;67706;51.074;-1.796;2023-05-25T14:03:18;7.72;;;2.60;;
78410;SDS011;67706;51.074;-1.796;2023-05-25T14:05:47;6.70;;;2.40;;
78410;SDS011;67706;51.074;-1.796;2023-05-25T14:08:13;4.43;;;2.00;;
78410;SDS011;67706;51.074;-1.796;2023-05-25T14:10:40;7.63;;;2.70;;
78410;SDS011;67706;51.074;-1.796;2023-05-25T14:13:08;6.63;;;2.58;;
78410;SDS011;67706;51.074;-1.796;2023-05-25T14:15:35;10.48;;;2.63;;
78410;SDS011;67706;51.074;-1.796;2023-05-25T14:18:01;6.22;;;2.20;;
78410;SDS011;67706;51.074;-1.796;2023-05-25T14:20:28;7.95;;;2.40;;
78410;SDS011;67706;51.074;-1.796;2023-05-25T14:22:59;5.25;;;2.00;;
78410;SDS011;67706;51.074;-1.796;2023-05-25T14:25:26;9.90;;;2.28;;
78410;SDS011;67706;51.074;-1.796;2023-05-25T14:27:52;4.72;;;1.90;;
78410;SDS011;67706;51.074;-1.796;2023-05-25T14:30:22;7.35;;;2.38;;
78410;SDS011;67706;51.074;-1.796;2023-05-25T14:32:49;6.40;;;2.45;;
78410;SDS011;67706;51.074;-1.796;2023-05-25T14:35:16;8.23;;;2.50;;